sensor_id;sensor_type;location;lat;lon;timestamp;temperature;humidity
21335;DHT22;69435;52.670;13.544;2023-12-04T00:00:06;-1.00;53.80
21335;DHT22;69435;52.670;13.544;2023-12-04T00:02:53;-1.10;53.80
21335;DHT22;69435;52.670;13.544;2023-12-04T00:05:42;-1.20;53.60
21335;DHT22;69435;52.670;13.544;2023-12-04T00:08:29;-1.30;53.30
21335;DHT22;69435;52.670;13.544;2023-12-04T00:11:15;-1.30;53.40
21335;DHT22;69435;52.670;13.544;2023-12-04T00:14:01;-1.30;53.10
21335;DHT22;69435;52.670;13.544;2023-12-04T00:16:47;-1.40;52.90
21335;DHT22;69435;52.670;13.544;2023-12-04T00:19:33;-1.50;52.80
21335;DHT22;69435;52.670;13.544;2023-12-04T00:22:19;-1.60;53.60
21335;DHT22;69435;52.670;13.544;2023-12-04T00:25:06;-1.60;52.80
21335;DHT22;69435;52.670;13.544;2023-12-04T00:27:53;-1.60;52.80
21335;DHT22;69435;52.670;13.544;2023-12-04T00:30:39;-1.70;52.80
21335;DHT22;69435;52.670;13.544;2023-12-04T00:33:25;-1.70;52.70
21335;DHT22;69435;52.670;13.544;2023-12-04T00:36:11;-1.80;52.60
21335;DHT22;69435;52.670;13.544;2023-12-04T00:38:57;-1.80;52.60
21335;DHT22;69435;52.670;13.544;2023-12-04T00:41:43;-1.90;52.50
21335;DHT22;69435;52.670;13.544;2023-12-04T00:44:29;-1.90;52.50
21335;DHT22;69435;52.670;13.544;2023-12-04T00:47:15;-2.00;52.30
21335;DHT22;69435;52.670;13.544;2023-12-04T00:50:01;-2.00;52.30
21335;DHT22;69435;52.670;13.544;2023-12-04T00:52:47;-2.10;52.40
21335;DHT22;69435;52.670;13.544;2023-12-04T00:55:34;-2.10;52.40
21335;DHT22;69435;52.670;13.544;2023-12-04T00:58:20;-2.20;52.20
21335;DHT22;69435;52.670;13.544;2023-12-04T01:01:06;-2.20;52.10
21335;DHT22;69435;52.670;13.544;2023-12-04T01:03:52;-2.20;52.10
21335;DHT22;69435;52.670;13.544;2023-12-04T01:06:38;-2.30;52.10
21335;DHT22;69435;52.670;13.544;2023-12-04T01:09:24;-2.30;52.00
21335;DHT22;69435;52.670;13.544;2023-12-04T01:12:10;-2.40;51.80
21335;DHT22;69435;52.670;13.544;2023-12-04T01:14:56;-2.40;51.80
21335;DHT22;69435;52.670;13.544;2023-12-04T01:17:42;-2.50;51.80
21335;DHT22;69435;52.670;13.544;2023-12-04T01:20:28;-2.50;51.80
21335;DHT22;69435;52.670;13.544;2023-12-04T01:23:15;-2.60;51.70
21335;DHT22;69435;52.670;13.544;2023-12-04T01:26:02;-2.60;51.70
21335;DHT22;69435;52.670;13.544;2023-12-04T01:28:49;-2.60;51.60
21335;DHT22;69435;52.670;13.544;2023-12-04T01:31:35;-2.60;51.80
21335;DHT22;69435;52.670;13.544;2023-12-04T01:34:21;-2.70;51.80
21335;DHT22;69435;52.670;13.544;2023-12-04T01:37:07;-2.70;51.90
21335;DHT22;69435;52.670;13.544;2023-12-04T01:39:54;-2.80;51.70
21335;DHT22;69435;52.670;13.544;2023-12-04T01:42:42;-2.80;51.60
21335;DHT22;69435;52.670;13.544;2023-12-04T01:45:28;-2.80;51.50
21335;DHT22;69435;52.670;13.544;2023-12-04T01:48:14;-2.80;51.50
21335;DHT22;69435;52.670;13.544;2023-12-04T01:51:04;-2.80;51.40
21335;DHT22;69435;52.670;13.544;2023-12-04T01:53:54;-2.90;51.40
21335;DHT22;69435;52.670;13.544;2023-12-04T01:56:43;-2.90;51.40
21335;DHT22;69435;52.670;13.544;2023-12-04T01:59:30;-3.00;51.40
21335;DHT22;69435;52.670;13.544;2023-12-04T02:02:16;-3.00;51.60
21335;DHT22;69435;52.670;13.544;2023-12-04T02:05:03;-3.00;51.60
21335;DHT22;69435;52.670;13.544;2023-12-04T02:07:51;-3.00;51.60
21335;DHT22;69435;52.670;13.544;2023-12-04T02:10:38;-3.00;51.60
21335;DHT22;69435;52.670;13.544;2023-12-04T02:13:25;-3.10;51.60
21335;DHT22;69435;52.670;13.544;2023-12-04T02:16:18;-3.00;51.80
21335;DHT22;69435;52.670;13.544;2023-12-04T02:19:10;-3.10;51.90
21335;DHT22;69435;52.670;13.544;2023-12-04T02:21:57;-3.10;52.10
21335;DHT22;69435;52.670;13.544;2023-12-04T02:24:46;-3.10;52.20
21335;DHT22;69435;52.670;13.544;2023-12-04T02:27:47;-3.10;52.10
21335;DHT22;69435;52.670;13.544;2023-12-04T02:30:37;-3.10;51.90
21335;DHT22;69435;52.670;13.544;2023-12-04T02:33:24;-3.10;52.00
21335;DHT22;69435;52.670;13.544;2023-12-04T02:36:13;-3.10;52.10
21335;DHT22;69435;52.670;13.544;2023-12-04T02:39:00;-3.10;52.10
21335;DHT22;69435;52.670;13.544;2023-12-04T02:41:47;-3.00;52.20
21335;DHT22;69435;52.670;13.544;2023-12-04T02:44:34;-3.10;52.20
21335;DHT22;69435;52.670;13.544;2023-12-04T02:47:20;-3.10;52.20
21335;DHT22;69435;52.670;13.544;2023-12-04T02:50:07;-3.10;52.20
21335;DHT22;69435;52.670;13.544;2023-12-04T02:52:53;-3.10;52.30
21335;DHT22;69435;52.670;13.544;2023-12-04T02:55:39;-3.10;52.40
21335;DHT22;69435;52.670;13.544;2023-12-04T02:58:25;-3.10;52.50
21335;DHT22;69435;52.670;13.544;2023-12-04T03:01:11;-3.10;52.50
21335;DHT22;69435;52.670;13.544;2023-12-04T03:03:57;-3.10;52.50
21335;DHT22;69435;52.670;13.544;2023-12-04T03:06:43;-3.10;52.50
21335;DHT22;69435;52.670;13.544;2023-12-04T03:09:29;-3.20;52.50
21335;DHT22;69435;52.670;13.544;2023-12-04T03:12:16;-3.10;52.60
21335;DHT22;69435;52.670;13.544;2023-12-04T03:15:03;-3.10;52.70
21335;DHT22;69435;52.670;13.544;2023-12-04T03:17:50;-3.10;52.80
21335;DHT22;69435;52.670;13.544;2023-12-04T03:20:38;-3.10;52.80
21335;DHT22;69435;52.670;13.544;2023-12-04T03:23:24;-3.10;53.00
21335;DHT22;69435;52.670;13.544;2023-12-04T03:26:10;-3.10;53.00
21335;DHT22;69435;52.670;13.544;2023-12-04T03:28:56;-3.00;53.00
21335;DHT22;69435;52.670;13.544;2023-12-04T03:31:42;-3.00;53.20
21335;DHT22;69435;52.670;13.544;2023-12-04T03:34:28;-3.00;53.30
21335;DHT22;69435;52.670;13.544;2023-12-04T03:37:14;-3.00;53.60
21335;DHT22;69435;52.670;13.544;2023-12-04T03:40:00;-2.90;53.90
21335;DHT22;69435;52.670;13.544;2023-12-04T03:42:46;-2.90;54.10
21335;DHT22;69435;52.670;13.544;2023-12-04T03:45:32;-2.80;54.10
21335;DHT22;69435;52.670;13.544;2023-12-04T03:48:18;-2.80;54.20
21335;DHT22;69435;52.670;13.544;2023-12-04T03:51:05;-2.80;54.30
21335;DHT22;69435;52.670;13.544;2023-12-04T03:53:51;-2.80;54.30
21335;DHT22;69435;52.670;13.544;2023-12-04T03:56:37;-2.70;54.50
21335;DHT22;69435;52.670;13.544;2023-12-04T03:59:24;-2.70;54.30
21335;DHT22;69435;52.670;13.544;2023-12-04T04:02:10;-2.70;54.30
21335;DHT22;69435;52.670;13.544;2023-12-04T04:04:56;-2.70;54.20
21335;DHT22;69435;52.670;13.544;2023-12-04T04:07:43;-2.70;54.10
21335;DHT22;69435;52.670;13.544;2023-12-04T04:10:32;-2.70;54.10
21335;DHT22;69435;52.670;13.544;2023-12-04T04:13:24;-2.60;54.10
21335;DHT22;69435;52.670;13.544;2023-12-04T04:16:16;-2.60;54.30
21335;DHT22;69435;52.670;13.544;2023-12-04T04:19:02;-2.60;54.20
21335;DHT22;69435;52.670;13.544;2023-12-04T04:21:51;-2.60;54.20
21335;DHT22;69435;52.670;13.544;2023-12-04T04:24:37;-2.60;54.20
21335;DHT22;69435;52.670;13.544;2023-12-04T04:27:24;-2.60;54.30
21335;DHT22;69435;52.670;13.544;2023-12-04T04:30:10;-2.60;54.60
21335;DHT22;69435;52.670;13.544;2023-12-04T04:32:59;-2.60;54.70
21335;DHT22;69435;52.670;13.544;2023-12-04T04:35:50;-2.50;55.00
21335;DHT22;69435;52.670;13.544;2023-12-04T04:38:36;-2.50;55.00
21335;DHT22;69435;52.670;13.544;2023-12-04T04:41:22;-2.40;55.10
21335;DHT22;69435;52.670;13.544;2023-12-04T04:44:09;-2.40;55.10
21335;DHT22;69435;52.670;13.544;2023-12-04T04:46:55;-2.30;55.40
21335;DHT22;69435;52.670;13.544;2023-12-04T04:49:41;-2.30;55.30
21335;DHT22;69435;52.670;13.544;2023-12-04T04:52:27;-2.30;55.40
21335;DHT22;69435;52.670;13.544;2023-12-04T04:55:14;-2.30;55.40
21335;DHT22;69435;52.670;13.544;2023-12-04T04:58:00;-2.30;55.40
21335;DHT22;69435;52.670;13.544;2023-12-04T05:00:46;-2.30;55.50
21335;DHT22;69435;52.670;13.544;2023-12-04T05:03:35;-2.30;55.70
21335;DHT22;69435;52.670;13.544;2023-12-04T05:06:21;-2.30;55.80
21335;DHT22;69435;52.670;13.544;2023-12-04T05:09:08;-2.30;55.90
21335;DHT22;69435;52.670;13.544;2023-12-04T05:11:54;-2.30;55.90
21335;DHT22;69435;52.670;13.544;2023-12-04T05:14:40;-2.30;55.90
21335;DHT22;69435;52.670;13.544;2023-12-04T05:17:26;-2.30;56.00
21335;DHT22;69435;52.670;13.544;2023-12-04T05:20:12;-2.30;56.00
21335;DHT22;69435;52.670;13.544;2023-12-04T05:22:58;-2.30;56.10
21335;DHT22;69435;52.670;13.544;2023-12-04T05:25:44;-2.30;56.10
21335;DHT22;69435;52.670;13.544;2023-12-04T05:28:30;-2.30;56.10
21335;DHT22;69435;52.670;13.544;2023-12-04T05:31:16;-2.20;56.10
21335;DHT22;69435;52.670;13.544;2023-12-04T05:34:02;-2.20;56.10
21335;DHT22;69435;52.670;13.544;2023-12-04T05:36:48;-2.20;56.00
21335;DHT22;69435;52.670;13.544;2023-12-04T05:39:34;-2.20;55.90
21335;DHT22;69435;52.670;13.544;2023-12-04T05:42:21;-2.20;55.90
21335;DHT22;69435;52.670;13.544;2023-12-04T05:45:07;-2.20;55.90
21335;DHT22;69435;52.670;13.544;2023-12-04T05:47:54;-2.20;55.90
21335;DHT22;69435;52.670;13.544;2023-12-04T05:50:40;-2.20;55.80
21335;DHT22;69435;52.670;13.544;2023-12-04T05:53:26;-2.20;55.80
21335;DHT22;69435;52.670;13.544;2023-12-04T05:56:12;-2.20;55.80
21335;DHT22;69435;52.670;13.544;2023-12-04T05:58:58;-2.20;55.80
21335;DHT22;69435;52.670;13.544;2023-12-04T06:01:44;-2.20;55.80
21335;DHT22;69435;52.670;13.544;2023-12-04T06:04:30;-2.20;55.80
21335;DHT22;69435;52.670;13.544;2023-12-04T06:07:17;-2.20;55.90
21335;DHT22;69435;52.670;13.544;2023-12-04T06:10:03;-2.20;55.90
21335;DHT22;69435;52.670;13.544;2023-12-04T06:12:50;-2.20;56.00
21335;DHT22;69435;52.670;13.544;2023-12-04T06:15:36;-2.20;56.00
21335;DHT22;69435;52.670;13.544;2023-12-04T06:18:22;-2.20;55.90
21335;DHT22;69435;52.670;13.544;2023-12-04T06:21:08;-2.30;55.80
21335;DHT22;69435;52.670;13.544;2023-12-04T06:23:54;-2.30;55.80
21335;DHT22;69435;52.670;13.544;2023-12-04T06:26:42;-2.30;55.80
21335;DHT22;69435;52.670;13.544;2023-12-04T06:29:29;-2.20;55.80
21335;DHT22;69435;52.670;13.544;2023-12-04T06:32:16;-2.20;55.70
21335;DHT22;69435;52.670;13.544;2023-12-04T06:35:02;-2.20;55.60
21335;DHT22;69435;52.670;13.544;2023-12-04T06:37:51;-2.20;55.60
21335;DHT22;69435;52.670;13.544;2023-12-04T06:40:41;-2.20;55.60
21335;DHT22;69435;52.670;13.544;2023-12-04T06:43:27;-2.20;55.70
21335;DHT22;69435;52.670;13.544;2023-12-04T06:46:14;-2.20;55.90
21335;DHT22;69435;52.670;13.544;2023-12-04T06:49:02;-2.20;55.80
21335;DHT22;69435;52.670;13.544;2023-12-04T06:51:49;-2.10;55.90
21335;DHT22;69435;52.670;13.544;2023-12-04T06:54:35;-2.10;56.00
21335;DHT22;69435;52.670;13.544;2023-12-04T06:57:22;-2.00;56.10
21335;DHT22;69435;52.670;13.544;2023-12-04T07:00:08;-2.00;56.30
21335;DHT22;69435;52.670;13.544;2023-12-04T07:02:58;-2.00;56.30
21335;DHT22;69435;52.670;13.544;2023-12-04T07:05:44;-2.00;56.40
21335;DHT22;69435;52.670;13.544;2023-12-04T07:08:30;-1.90;56.70
21335;DHT22;69435;52.670;13.544;2023-12-04T07:11:16;-1.90;56.80
21335;DHT22;69435;52.670;13.544;2023-12-04T07:14:02;-1.90;56.80
21335;DHT22;69435;52.670;13.544;2023-12-04T07:16:48;-1.80;56.90
21335;DHT22;69435;52.670;13.544;2023-12-04T07:19:35;-1.70;57.00
21335;DHT22;69435;52.670;13.544;2023-12-04T07:22:21;-1.70;57.00
21335;DHT22;69435;52.670;13.544;2023-12-04T07:25:07;-1.60;57.00
21335;DHT22;69435;52.670;13.544;2023-12-04T07:27:54;-1.60;57.00
21335;DHT22;69435;52.670;13.544;2023-12-04T07:30:40;-1.50;57.20
21335;DHT22;69435;52.670;13.544;2023-12-04T07:33:26;-1.40;57.20
21335;DHT22;69435;52.670;13.544;2023-12-04T07:36:12;-1.40;57.20
21335;DHT22;69435;52.670;13.544;2023-12-04T07:38:58;-1.40;57.30
21335;DHT22;69435;52.670;13.544;2023-12-04T07:41:44;-1.30;57.50
21335;DHT22;69435;52.670;13.544;2023-12-04T07:44:30;-1.20;57.40
21335;DHT22;69435;52.670;13.544;2023-12-04T07:47:16;-1.10;57.50
21335;DHT22;69435;52.670;13.544;2023-12-04T07:50:02;-1.10;57.40
21335;DHT22;69435;52.670;13.544;2023-12-04T07:52:49;-1.00;57.20
21335;DHT22;69435;52.670;13.544;2023-12-04T07:55:35;-1.00;57.40
21335;DHT22;69435;52.670;13.544;2023-12-04T07:58:22;-0.90;57.50
21335;DHT22;69435;52.670;13.544;2023-12-04T08:01:08;-0.90;57.30
21335;DHT22;69435;52.670;13.544;2023-12-04T08:03:54;-0.80;57.30
21335;DHT22;69435;52.670;13.544;2023-12-04T08:06:40;-0.80;57.10
21335;DHT22;69435;52.670;13.544;2023-12-04T08:09:26;-0.70;57.20
21335;DHT22;69435;52.670;13.544;2023-12-04T08:12:12;-0.60;57.20
21335;DHT22;69435;52.670;13.544;2023-12-04T08:14:58;-0.50;57.30
21335;DHT22;69435;52.670;13.544;2023-12-04T08:17:45;-0.50;57.30
21335;DHT22;69435;52.670;13.544;2023-12-04T08:20:31;-0.40;57.20
21335;DHT22;69435;52.670;13.544;2023-12-04T08:23:17;-0.30;57.00
21335;DHT22;69435;52.670;13.544;2023-12-04T08:26:03;-0.30;56.80
21335;DHT22;69435;52.670;13.544;2023-12-04T08:28:50;-0.30;56.90
21335;DHT22;69435;52.670;13.544;2023-12-04T08:31:38;-0.20;56.70
21335;DHT22;69435;52.670;13.544;2023-12-04T08:34:24;-0.20;56.90
21335;DHT22;69435;52.670;13.544;2023-12-04T08:37:10;-0.20;56.90
21335;DHT22;69435;52.670;13.544;2023-12-04T08:39:56;-0.20;56.80
21335;DHT22;69435;52.670;13.544;2023-12-04T08:42:43;-0.20;56.90
21335;DHT22;69435;52.670;13.544;2023-12-04T08:45:30;-0.10;57.00
21335;DHT22;69435;52.670;13.544;2023-12-04T08:48:16;-0.10;57.00
21335;DHT22;69435;52.670;13.544;2023-12-04T08:51:03;0.00;57.00
21335;DHT22;69435;52.670;13.544;2023-12-04T08:53:49;0.00;56.90
21335;DHT22;69435;52.670;13.544;2023-12-04T08:56:35;0.00;56.90
21335;DHT22;69435;52.670;13.544;2023-12-04T08:59:21;0.10;57.10
21335;DHT22;69435;52.670;13.544;2023-12-04T09:02:07;0.20;57.10
21335;DHT22;69435;52.670;13.544;2023-12-04T09:04:53;0.20;57.20
21335;DHT22;69435;52.670;13.544;2023-12-04T09:07:39;0.30;57.80
21335;DHT22;69435;52.670;13.544;2023-12-04T09:10:25;0.30;56.90
21335;DHT22;69435;52.670;13.544;2023-12-04T09:13:11;0.30;57.00
21335;DHT22;69435;52.670;13.544;2023-12-04T09:15:58;0.40;57.00
21335;DHT22;69435;52.670;13.544;2023-12-04T09:18:44;0.40;56.80
21335;DHT22;69435;52.670;13.544;2023-12-04T09:21:30;0.50;56.90
21335;DHT22;69435;52.670;13.544;2023-12-04T09:24:16;0.50;56.60
21335;DHT22;69435;52.670;13.544;2023-12-04T09:27:02;0.50;56.60
21335;DHT22;69435;52.670;13.544;2023-12-04T09:29:48;0.50;56.60
21335;DHT22;69435;52.670;13.544;2023-12-04T09:32:34;0.60;56.70
21335;DHT22;69435;52.670;13.544;2023-12-04T09:35:20;0.60;56.80
21335;DHT22;69435;52.670;13.544;2023-12-04T09:38:07;0.70;56.90
21335;DHT22;69435;52.670;13.544;2023-12-04T09:40:53;0.70;56.70
21335;DHT22;69435;52.670;13.544;2023-12-04T09:43:45;0.70;56.60
21335;DHT22;69435;52.670;13.544;2023-12-04T09:46:33;0.80;56.70
21335;DHT22;69435;52.670;13.544;2023-12-04T09:49:20;0.80;56.50
21335;DHT22;69435;52.670;13.544;2023-12-04T09:52:07;0.80;56.50
21335;DHT22;69435;52.670;13.544;2023-12-04T09:54:53;0.90;56.60
21335;DHT22;69435;52.670;13.544;2023-12-04T09:57:39;0.90;56.60
21335;DHT22;69435;52.670;13.544;2023-12-04T10:00:26;0.90;56.40
21335;DHT22;69435;52.670;13.544;2023-12-04T10:03:13;0.90;56.30
21335;DHT22;69435;52.670;13.544;2023-12-04T10:06:00;1.00;56.60
21335;DHT22;69435;52.670;13.544;2023-12-04T10:08:46;1.00;56.50
21335;DHT22;69435;52.670;13.544;2023-12-04T10:11:32;1.00;56.10
21335;DHT22;69435;52.670;13.544;2023-12-04T10:14:19;1.00;56.20
21335;DHT22;69435;52.670;13.544;2023-12-04T10:17:15;1.10;56.40
21335;DHT22;69435;52.670;13.544;2023-12-04T10:20:10;1.10;56.40
21335;DHT22;69435;52.670;13.544;2023-12-04T10:22:59;1.20;56.10
21335;DHT22;69435;52.670;13.544;2023-12-04T10:25:48;1.20;55.90
21335;DHT22;69435;52.670;13.544;2023-12-04T10:28:38;1.20;55.40
21335;DHT22;69435;52.670;13.544;2023-12-04T10:31:24;1.20;55.70
21335;DHT22;69435;52.670;13.544;2023-12-04T10:34:10;1.30;55.80
21335;DHT22;69435;52.670;13.544;2023-12-04T10:36:56;1.30;55.70
21335;DHT22;69435;52.670;13.544;2023-12-04T10:39:51;1.30;55.80
21335;DHT22;69435;52.670;13.544;2023-12-04T10:42:37;1.40;55.70
21335;DHT22;69435;52.670;13.544;2023-12-04T10:45:23;1.40;55.70
21335;DHT22;69435;52.670;13.544;2023-12-04T10:48:10;1.50;55.80
21335;DHT22;69435;52.670;13.544;2023-12-04T10:50:58;1.50;55.40
21335;DHT22;69435;52.670;13.544;2023-12-04T10:53:45;1.50;55.20
21335;DHT22;69435;52.670;13.544;2023-12-04T10:56:38;1.50;55.20
21335;DHT22;69435;52.670;13.544;2023-12-04T10:59:32;1.60;55.20
21335;DHT22;69435;52.670;13.544;2023-12-04T11:02:26;1.60;55.30
21335;DHT22;69435;52.670;13.544;2023-12-04T11:05:15;1.70;55.50
21335;DHT22;69435;52.670;13.544;2023-12-04T11:08:09;1.60;55.10
21335;DHT22;69435;52.670;13.544;2023-12-04T11:11:05;1.70;55.20
21335;DHT22;69435;52.670;13.544;2023-12-04T11:13:59;1.70;55.30
21335;DHT22;69435;52.670;13.544;2023-12-04T11:16:48;1.70;55.10
21335;DHT22;69435;52.670;13.544;2023-12-04T11:19:53;1.80;55.00
21335;DHT22;69435;52.670;13.544;2023-12-04T11:22:45;1.80;55.00
21335;DHT22;69435;52.670;13.544;2023-12-04T11:25:34;1.80;55.10
21335;DHT22;69435;52.670;13.544;2023-12-04T11:28:21;1.90;55.30
21335;DHT22;69435;52.670;13.544;2023-12-04T11:31:08;1.90;55.60
21335;DHT22;69435;52.670;13.544;2023-12-04T11:34:01;2.00;55.20
21335;DHT22;69435;52.670;13.544;2023-12-04T11:36:48;2.10;55.40
21335;DHT22;69435;52.670;13.544;2023-12-04T11:39:35;2.10;55.30
21335;DHT22;69435;52.670;13.544;2023-12-04T11:42:25;2.10;54.60
21335;DHT22;69435;52.670;13.544;2023-12-04T11:45:18;2.10;54.80
21335;DHT22;69435;52.670;13.544;2023-12-04T11:48:08;2.10;55.00
21335;DHT22;69435;52.670;13.544;2023-12-04T11:50:56;2.10;55.00
21335;DHT22;69435;52.670;13.544;2023-12-04T11:53:44;2.20;54.80
21335;DHT22;69435;52.670;13.544;2023-12-04T11:56:30;2.30;55.10
21335;DHT22;69435;52.670;13.544;2023-12-04T11:59:17;2.30;54.90
21335;DHT22;69435;52.670;13.544;2023-12-04T12:02:03;2.30;54.80
21335;DHT22;69435;52.670;13.544;2023-12-04T12:04:54;2.40;54.40
21335;DHT22;69435;52.670;13.544;2023-12-04T12:07:40;2.30;54.80
21335;DHT22;69435;52.670;13.544;2023-12-04T12:10:28;2.40;54.60
21335;DHT22;69435;52.670;13.544;2023-12-04T12:13:15;2.30;54.40
21335;DHT22;69435;52.670;13.544;2023-12-04T12:16:01;2.30;54.60
21335;DHT22;69435;52.670;13.544;2023-12-04T12:18:49;2.40;54.60
21335;DHT22;69435;52.670;13.544;2023-12-04T12:21:36;2.30;54.40
21335;DHT22;69435;52.670;13.544;2023-12-04T12:24:23;2.40;55.30
21335;DHT22;69435;52.670;13.544;2023-12-04T12:27:11;2.40;54.50
21335;DHT22;69435;52.670;13.544;2023-12-04T12:29:58;2.40;54.50
21335;DHT22;69435;52.670;13.544;2023-12-04T12:32:44;2.40;54.50
21335;DHT22;69435;52.670;13.544;2023-12-04T12:35:30;2.40;54.20
21335;DHT22;69435;52.670;13.544;2023-12-04T12:38:16;2.40;54.00
21335;DHT22;69435;52.670;13.544;2023-12-04T12:41:07;2.40;54.10
21335;DHT22;69435;52.670;13.544;2023-12-04T12:43:56;2.40;54.00
21335;DHT22;69435;52.670;13.544;2023-12-04T12:46:46;2.30;54.20
21335;DHT22;69435;52.670;13.544;2023-12-04T12:49:33;2.30;54.20
21335;DHT22;69435;52.670;13.544;2023-12-04T12:52:21;2.30;54.30
21335;DHT22;69435;52.670;13.544;2023-12-04T12:55:07;2.20;54.30
21335;DHT22;69435;52.670;13.544;2023-12-04T12:57:56;2.20;54.60
21335;DHT22;69435;52.670;13.544;2023-12-04T13:00:43;2.20;54.50
21335;DHT22;69435;52.670;13.544;2023-12-04T13:03:30;2.20;54.60
21335;DHT22;69435;52.670;13.544;2023-12-04T13:06:19;2.20;54.60
21335;DHT22;69435;52.670;13.544;2023-12-04T13:09:05;2.20;54.70
21335;DHT22;69435;52.670;13.544;2023-12-04T13:11:52;2.20;54.70
21335;DHT22;69435;52.670;13.544;2023-12-04T13:14:38;2.20;54.70
21335;DHT22;69435;52.670;13.544;2023-12-04T13:17:25;2.20;54.90
21335;DHT22;69435;52.670;13.544;2023-12-04T13:20:11;2.20;55.00
21335;DHT22;69435;52.670;13.544;2023-12-04T13:22:59;2.20;55.00
21335;DHT22;69435;52.670;13.544;2023-12-04T13:25:45;2.20;54.90
21335;DHT22;69435;52.670;13.544;2023-12-04T13:28:31;2.20;55.10
21335;DHT22;69435;52.670;13.544;2023-12-04T13:31:17;2.20;55.20
21335;DHT22;69435;52.670;13.544;2023-12-04T13:34:06;2.20;55.10
21335;DHT22;69435;52.670;13.544;2023-12-04T13:36:53;2.10;55.20
21335;DHT22;69435;52.670;13.544;2023-12-04T13:39:39;2.20;55.30
21335;DHT22;69435;52.670;13.544;2023-12-04T13:42:33;2.20;55.20
21335;DHT22;69435;52.670;13.544;2023-12-04T13:45:38;2.20;55.20
21335;DHT22;69435;52.670;13.544;2023-12-04T13:48:24;2.20;55.00
21335;DHT22;69435;52.670;13.544;2023-12-04T13:51:11;2.20;54.90
21335;DHT22;69435;52.670;13.544;2023-12-04T13:53:57;2.10;55.10
21335;DHT22;69435;52.670;13.544;2023-12-04T13:56:54;2.10;56.00
21335;DHT22;69435;52.670;13.544;2023-12-04T13:59:42;2.10;55.20
21335;DHT22;69435;52.670;13.544;2023-12-04T14:02:28;2.10;55.30
21335;DHT22;69435;52.670;13.544;2023-12-04T14:05:14;2.10;55.20
21335;DHT22;69435;52.670;13.544;2023-12-04T14:08:01;2.10;55.40
21335;DHT22;69435;52.670;13.544;2023-12-04T14:10:49;2.00;55.20
21335;DHT22;69435;52.670;13.544;2023-12-04T14:13:35;2.00;55.20
21335;DHT22;69435;52.670;13.544;2023-12-04T14:16:21;2.00;55.20
21335;DHT22;69435;52.670;13.544;2023-12-04T14:19:08;1.90;55.30
21335;DHT22;69435;52.670;13.544;2023-12-04T14:21:54;1.90;55.30
21335;DHT22;69435;52.670;13.544;2023-12-04T14:24:40;1.90;55.30
21335;DHT22;69435;52.670;13.544;2023-12-04T14:27:26;1.80;55.30
21335;DHT22;69435;52.670;13.544;2023-12-04T14:30:13;1.80;55.20
21335;DHT22;69435;52.670;13.544;2023-12-04T14:32:59;1.80;55.30
21335;DHT22;69435;52.670;13.544;2023-12-04T14:35:46;1.70;55.40
21335;DHT22;69435;52.670;13.544;2023-12-04T14:38:32;1.70;55.40
21335;DHT22;69435;52.670;13.544;2023-12-04T14:41:20;1.70;55.40
21335;DHT22;69435;52.670;13.544;2023-12-04T14:44:06;1.60;55.40
21335;DHT22;69435;52.670;13.544;2023-12-04T14:46:52;1.60;55.50
21335;DHT22;69435;52.670;13.544;2023-12-04T14:49:38;1.60;55.40
21335;DHT22;69435;52.670;13.544;2023-12-04T14:52:24;1.60;55.40
21335;DHT22;69435;52.670;13.544;2023-12-04T14:55:14;1.60;55.40
21335;DHT22;69435;52.670;13.544;2023-12-04T14:58:09;1.60;55.50
21335;DHT22;69435;52.670;13.544;2023-12-04T15:01:20;1.60;55.30
21335;DHT22;69435;52.670;13.544;2023-12-04T15:04:25;1.60;55.40
21335;DHT22;69435;52.670;13.544;2023-12-04T15:07:29;1.60;55.30
21335;DHT22;69435;52.670;13.544;2023-12-04T15:10:16;1.60;55.40
21335;DHT22;69435;52.670;13.544;2023-12-04T15:13:04;1.60;55.40
21335;DHT22;69435;52.670;13.544;2023-12-04T15:16:10;1.60;55.60
21335;DHT22;69435;52.670;13.544;2023-12-04T15:18:59;1.70;55.80
21335;DHT22;69435;52.670;13.544;2023-12-04T15:22:05;1.60;55.80
21335;DHT22;69435;52.670;13.544;2023-12-04T15:24:51;1.60;55.80
21335;DHT22;69435;52.670;13.544;2023-12-04T15:27:38;1.60;56.00
21335;DHT22;69435;52.670;13.544;2023-12-04T15:30:24;1.60;56.10
21335;DHT22;69435;52.670;13.544;2023-12-04T15:33:10;1.60;56.30
21335;DHT22;69435;52.670;13.544;2023-12-04T15:35:56;1.60;56.40
21335;DHT22;69435;52.670;13.544;2023-12-04T15:38:42;1.60;56.50
21335;DHT22;69435;52.670;13.544;2023-12-04T15:41:29;1.60;56.30
21335;DHT22;69435;52.670;13.544;2023-12-04T15:44:16;1.60;56.30
21335;DHT22;69435;52.670;13.544;2023-12-04T15:47:02;1.60;56.20
21335;DHT22;69435;52.670;13.544;2023-12-04T15:49:48;1.60;56.20
21335;DHT22;69435;52.670;13.544;2023-12-04T15:52:34;1.60;56.40
21335;DHT22;69435;52.670;13.544;2023-12-04T15:55:25;1.60;56.40
21335;DHT22;69435;52.670;13.544;2023-12-04T15:58:15;1.60;56.40
21335;DHT22;69435;52.670;13.544;2023-12-04T16:01:02;1.60;56.50
21335;DHT22;69435;52.670;13.544;2023-12-04T16:03:50;1.60;56.50
21335;DHT22;69435;52.670;13.544;2023-12-04T16:06:36;1.60;56.60
21335;DHT22;69435;52.670;13.544;2023-12-04T16:09:22;1.60;56.60
21335;DHT22;69435;52.670;13.544;2023-12-04T16:12:13;1.60;56.70
21335;DHT22;69435;52.670;13.544;2023-12-04T16:14:59;1.60;56.70
21335;DHT22;69435;52.670;13.544;2023-12-04T16:17:45;1.60;56.80
21335;DHT22;69435;52.670;13.544;2023-12-04T16:20:32;1.50;56.80
21335;DHT22;69435;52.670;13.544;2023-12-04T16:23:18;1.50;56.90
21335;DHT22;69435;52.670;13.544;2023-12-04T16:26:06;1.50;57.00
21335;DHT22;69435;52.670;13.544;2023-12-04T16:28:52;1.50;57.00
21335;DHT22;69435;52.670;13.544;2023-12-04T16:31:38;1.50;57.10
21335;DHT22;69435;52.670;13.544;2023-12-04T16:34:27;1.50;57.10
21335;DHT22;69435;52.670;13.544;2023-12-04T16:37:14;1.50;57.40
21335;DHT22;69435;52.670;13.544;2023-12-04T16:40:00;1.40;57.30
21335;DHT22;69435;52.670;13.544;2023-12-04T16:42:46;1.40;57.40
21335;DHT22;69435;52.670;13.544;2023-12-04T16:45:32;1.40;57.40
21335;DHT22;69435;52.670;13.544;2023-12-04T16:48:18;1.40;57.40
21335;DHT22;69435;52.670;13.544;2023-12-04T16:51:05;1.40;57.60
21335;DHT22;69435;52.670;13.544;2023-12-04T16:53:51;1.40;57.60
21335;DHT22;69435;52.670;13.544;2023-12-04T16:56:37;1.40;57.60
21335;DHT22;69435;52.670;13.544;2023-12-04T16:59:24;1.40;57.50
21335;DHT22;69435;52.670;13.544;2023-12-04T17:02:10;1.40;57.50
21335;DHT22;69435;52.670;13.544;2023-12-04T17:04:56;1.40;57.40
21335;DHT22;69435;52.670;13.544;2023-12-04T17:07:44;1.40;57.40
21335;DHT22;69435;52.670;13.544;2023-12-04T17:10:30;1.40;57.30
21335;DHT22;69435;52.670;13.544;2023-12-04T17:13:16;1.40;57.30
21335;DHT22;69435;52.670;13.544;2023-12-04T17:16:04;1.50;57.50
21335;DHT22;69435;52.670;13.544;2023-12-04T17:18:51;1.40;57.30
21335;DHT22;69435;52.670;13.544;2023-12-04T17:21:38;1.40;57.30
21335;DHT22;69435;52.670;13.544;2023-12-04T17:24:24;1.40;57.30
21335;DHT22;69435;52.670;13.544;2023-12-04T17:27:10;1.40;57.20